Time;durP1;ratioP1;P1;durP2;ratioP2;P2;SDS_P1;SDS_P2;PMS_P1;PMS_P2;Temp;Humidity;BMP_temperature;BMP_pressure;BME280_temperature;BME280_humidity;BME280_pressure;Samples;Min_cycle;Max_cycle;Signal;HPM_P1;HPM_P2
2022/08/08 00:00:11;;;;;;;26.60;10.55;;;;;;;29.03;73.59;100618.22;5063898;28;66531;-36
2022/08/08 00:03:25;;;;;;;30.07;11.93;;;;;;;28.87;75.62;100622.19;5055010;28;70935;-35
2022/08/08 00:06:09;;;;;;;21.42;12.43;;;;;;;29.03;75.56;100625.44;5054161;28;66335;-36
2022/08/08 00:09:22;;;;;;;22.40;12.98;;;;;;;28.61;77.57;100574.53;5047561;28;69887;-35
2022/08/08 00:12:04;;;;;;;24.73;13.02;;;;;;;28.86;77.62;100604.34;5052185;28;65611;-35
2022/08/08 00:14:58;;;;;;;21.10;13.07;;;;;;;28.59;76.95;100559.59;5055605;28;70720;-36
2022/08/08 00:18:07;;;;;;;29.85;13.65;;;;;;;28.94;77.87;100622.16;5059051;28;65750;-36
2022/08/08 00:20:52;;;;;;;22.30;11.23;;;;;;;29.14;77.06;100624.81;5038021;28;70537;-36
2022/08/08 00:23:52;;;;;;;31.90;12.30;;;;;;;29.18;77.61;100621.47;5057299;28;66451;-35
2022/08/08 00:26:38;;;;;;;19.92;11.27;;;;;;;29.26;73.97;100623.09;5047748;28;70350;-35
2022/08/08 00:29:11;;;;;;;32.83;11.50;;;;;;;29.45;71.62;100632.16;5055801;28;65969;-38
2022/08/08 00:31:50;;;;;;;19.30;10.82;;;;;;;29.18;70.23;100563.94;5052959;28;69650;-37
2022/08/08 00:35:19;;;;;;;18.70;9.70;;;;;;;29.61;69.69;100628.09;5054987;28;66336;-36
2022/08/08 00:38:15;;;;;;;19.98;9.52;;;;;;;29.25;70.22;100567.41;5057696;28;70086;-35
2022/08/08 00:41:13;;;;;;;21.30;10.02;;;;;;;29.75;68.87;100621.56;5059184;28;65800;-36
2022/08/08 00:44:09;;;;;;;19.02;9.82;;;;;;;29.76;69.68;100617.03;5061285;28;70337;-36
2022/08/08 00:47:06;;;;;;;21.20;10.45;;;;;;;29.89;68.45;100613.38;5052242;28;66471;-36
2022/08/08 00:50:36;;;;;;;14.13;9.43;;;;;;;29.85;68.26;100618.41;5057241;28;70093;-37
2022/08/08 00:53:23;;;;;;;16.35;9.75;;;;;;;29.97;67.55;100616.63;5035109;28;66779;-37
2022/08/08 00:56:38;;;;;;;16.90;10.43;;;;;;;29.95;68.29;100623.31;5057015;28;71056;-38
2022/08/08 00:59:45;;;;;;;15.00;10.55;;;;;;;30.00;67.80;100628.88;5054807;28;66926;-36
2022/08/08 01:03:02;;;;;;;15.60;9.82;;;;;;;30.00;67.70;100620.78;5055175;28;69826;-36
2022/08/08 01:06:06;;;;;;;15.10;9.40;;;;;;;30.11;67.15;100625.47;5053191;28;65599;-36
2022/08/08 01:09:24;;;;;;;12.35;9.90;;;;;;;30.11;67.11;100628.16;5055944;28;70053;-37
2022/08/08 01:12:36;;;;;;;12.35;9.65;;;;;;;30.21;66.83;100628.50;5051641;28;66119;-37
2022/08/08 01:15:47;;;;;;;11.88;9.02;;;;;;;30.14;66.54;100633.13;5047604;28;69973;-38
2022/08/08 01:18:55;;;;;;;10.63;9.10;;;;;;;29.96;67.15;100593.34;5052877;28;65985;-37
2022/08/08 01:21:52;;;;;;;10.75;9.45;;;;;;;30.34;66.51;100626.75;5063039;28;69457;-37
2022/08/08 01:25:23;;;;;;;12.43;8.45;;;;;;;30.27;67.29;100622.22;5060156;28;66746;-37
2022/08/08 01:28:51;;;;;;;10.90;8.68;;;;;;;30.29;67.10;100622.03;5058734;28;70658;-38
2022/08/08 01:32:27;;;;;;;13.90;9.07;;;;;;;30.24;67.43;100622.69;5047010;28;66398;-37
2022/08/08 01:35:22;;;;;;;11.35;9.45;;;;;;;30.45;66.46;100631.41;4984582;28;70510;-36
2022/08/08 01:38:10;;;;;;;10.70;8.70;;;;;;;30.50;66.50;100628.88;4997117;28;66297;-36
2022/08/08 01:40:52;;;;;;;12.27;8.32;;;;;;;30.52;65.67;100629.50;5055342;28;70570;-37
2022/08/08 01:43:32;;;;;;;11.90;8.95;;;;;;;30.56;66.35;100636.09;5067218;27;66227;-37
2022/08/08 01:46:31;;;;;;;8.88;7.88;;;;;;;30.59;66.13;100635.66;5058091;28;69968;-37
2022/08/08 01:49:28;;;;;;;12.93;8.55;;;;;;;30.50;66.33;100637.81;5059177;28;66317;-37
2022/08/08 01:52:31;;;;;;;13.00;8.20;;;;;;;30.63;65.84;100647.69;5060951;28;69990;-37
2022/08/08 01:55:38;;;;;;;9.18;8.32;;;;;;;30.22;66.16;100564.41;5057868;28;66907;-37
2022/08/08 01:58:39;;;;;;;12.65;8.10;;;;;;;30.68;65.67;100647.03;5055188;28;69537;-37
2022/08/08 02:02:02;;;;;;;12.95;7.80;;;;;;;30.44;66.32;100632.47;5059172;28;65350;-38
2022/08/08 02:04:57;;;;;;;10.98;7.93;;;;;;;30.72;65.41;100640.09;5053114;28;70070;-37
2022/08/08 02:08:09;;;;;;;11.85;8.02;;;;;;;30.66;65.79;100646.41;5066434;27;66207;-36
2022/08/08 02:10:59;;;;;;;9.00;8.10;;;;;;;30.33;65.58;100582.63;5050513;28;68573;-37
2022/08/08 02:14:11;;;;;;;9.45;7.75;;;;;;;30.82;65.70;100645.03;5056395;28;66603;-36
2022/08/08 02:17:02;;;;;;;10.13;7.97;;;;;;;30.80;65.59;100636.31;4996569;28;70002;-38
2022/08/08 02:19:57;;;;;;;8.35;7.57;;;;;;;30.82;65.95;100636.91;5059567;28;65703;-37
2022/08/08 02:23:00;;;;;;;11.10;7.72;;;;;;;30.90;65.59;100647.44;5063718;28;69334;-36
2022/08/08 02:25:56;;;;;;;15.65;8.18;;;;;;;30.87;65.74;100637.03;5049062;28;66292;-35
2022/08/08 02:28:45;;;;;;;10.68;7.70;;;;;;;30.88;65.65;100644.94;5047679;28;69346;-37
2022/08/08 02:31:58;;;;;;;12.80;7.85;;;;;;;30.88;65.14;100644.13;5069689;27;65434;-36
2022/08/08 02:34:58;;;;;;;12.57;8.73;;;;;;;31.00;64.71;100638.78;5055535;28;70434;-37
2022/08/08 02:38:43;;;;;;;9.15;7.35;;;;;;;30.79;64.99;100629.22;5057345;28;66669;-37
2022/08/08 02:41:33;;;;;;;8.93;7.88;;;;;;;31.02;65.01;100640.22;5038739;28;69804;-37
2022/08/08 02:44:56;;;;;;;7.72;7.03;;;;;;;30.63;64.88;100582.72;5059061;28;65757;-37
2022/08/08 02:47:54;;;;;;;8.45;7.20;;;;;;;30.99;64.92;100645.25;5058789;28;70573;-37
2022/08/08 02:50:38;;;;;;;7.85;7.05;;;;;;;31.10;64.18;100630.94;5059564;28;66765;-37
2022/08/08 02:53:48;;;;;;;8.90;7.20;;;;;;;30.60;65.31;100575.06;5056724;28;70510;-37
2022/08/08 02:56:55;;;;;;;10.05;6.82;;;;;;;31.06;65.05;100646.00;5066712;27;66257;-37
2022/08/08 03:00:05;;;;;;;7.07;6.28;;;;;;;31.10;64.71;100631.78;5066704;27;69549;-37
2022/08/08 03:03:27;;;;;;;8.15;6.30;;;;;;;31.11;65.07;100633.41;5052608;28;66957;-37
2022/08/08 03:07:03;;;;;;;8.18;6.13;;;;;;;30.67;64.85;100561.44;5051142;28;70395;-36
2022/08/08 03:10:00;;;;;;;11.02;5.78;;;;;;;31.23;64.42;100624.50;5056227;28;66534;-37
2022/08/08 03:13:14;;;;;;;5.85;5.35;;;;;;;30.75;64.83;100554.88;5058589;28;70064;-36
2022/08/08 03:16:20;;;;;;;6.32;5.65;;;;;;;31.29;64.51;100626.34;5055611;28;66621;-36
2022/08/08 03:19:39;;;;;;;7.77;5.63;;;;;;;31.29;64.38;100629.88;5048650;28;70116;-36
2022/08/08 03:22:22;;;;;;;7.07;5.30;;;;;;;31.37;63.92;100623.31;5037757;28;66093;-36
2022/08/08 03:25:13;;;;;;;5.57;5.03;;;;;;;31.41;63.67;100629.94;5060023;28;70448;-37
2022/08/08 03:28:01;;;;;;;5.88;4.70;;;;;;;31.40;63.86;100625.59;5061142;28;66653;-36
2022/08/08 03:30:36;;;;;;;5.82;4.85;;;;;;;31.47;63.85;100622.75;5059788;28;69603;-36
2022/08/08 03:33:17;;;;;;;5.80;5.25;;;;;;;31.47;63.45;100620.88;5058815;28;66987;-36
2022/08/08 03:36:14;;;;;;;5.72;5.22;;;;;;;31.52;63.60;100629.16;5051512;28;69649;-36
2022/08/08 03:38:58;;;;;;;9.85;5.68;;;;;;;31.45;63.41;100606.72;5060296;28;66449;-38
2022/08/08 03:41:48;;;;;;;8.10;5.10;;;;;;;31.45;63.35;100601.28;5051009;28;71327;-39
2022/08/08 03:44:42;;;;;;;8.40;5.40;;;;;;;31.54;63.22;100616.19;5049895;28;66425;-36
2022/08/08 03:47:22;;;;;;;5.55;4.55;;;;;;;31.61;63.20;100627.75;5049400;28;71135;-37
2022/08/08 03:50:19;;;;;;;5.45;4.65;;;;;;;31.54;63.34;100612.66;5055426;28;65554;-37
2022/08/08 03:53:01;;;;;;;7.63;4.68;;;;;;;31.65;63.26;100606.44;5050775;28;70430;-37
2022/08/08 03:55:37;;;;;;;4.45;4.05;;;;;;;31.69;63.32;100612.22;5059636;28;66010;-37
2022/08/08 03:58:27;;;;;;;4.97;4.57;;;;;;;31.69;62.73;100602.19;5061944;28;69875;-37
2022/08/08 04:01:16;;;;;;;4.63;4.20;;;;;;;31.74;62.87;100598.78;5058313;28;66212;-37
2022/08/08 04:03:58;;;;;;;7.28;4.53;;;;;;;31.63;62.94;100576.03;5052093;28;70390;-36
2022/08/08 04:06:38;;;;;;;5.63;4.60;;;;;;;31.74;62.88;100594.19;5058025;28;65619;-37
2022/08/08 04:09:16;;;;;;;4.97;4.13;;;;;;;31.78;62.38;100595.38;5055732;28;69728;-36
2022/08/08 04:11:48;;;;;;;5.13;4.28;;;;;;;31.73;62.70;100559.16;5042346;28;67861;-37
2022/08/08 04:14:43;;;;;;;5.80;4.47;;;;;;;31.75;62.92;100557.03;5060936;28;69677;-36
2022/08/08 04:17:20;;;;;;;4.70;4.10;;;;;;;31.76;62.88;100558.69;5051244;28;65342;-37
2022/08/08 04:20:13;;;;;;;4.05;3.65;;;;;;;31.85;62.58;100554.59;5051023;28;70724;-36
2022/08/08 04:22:48;;;;;;;4.65;3.72;;;;;;;31.91;62.55;100550.97;5044318;28;65816;-37
2022/08/08 04:25:21;;;;;;;4.07;3.75;;;;;;;31.92;62.75;100552.59;5046855;28;70288;-37
2022/08/08 04:28:00;;;;;;;4.65;3.38;;;;;;;31.95;62.22;100545.88;5053627;28;66335;-37
2022/08/08 04:30:52;;;;;;;6.18;3.58;;;;;;;31.96;61.87;100542.13;5049992;28;69700;-38
2022/08/08 04:33:26;;;;;;;4.28;3.72;;;;;;;31.67;62.17;100500.44;5048505;28;66838;-37
2022/08/08 04:36:12;;;;;;;5.22;3.58;;;;;;;31.98;62.43;100538.13;5054911;28;69594;-39
2022/08/08 04:38:45;;;;;;;6.13;3.85;;;;;;;31.91;62.32;100526.56;5058292;28;65797;-37
2022/08/08 04:41:37;;;;;;;4.47;4.18;;;;;;;31.96;62.18;100548.38;5062020;27;70698;-36
2022/08/08 04:44:09;;;;;;;4.55;3.90;;;;;;;31.89;62.23;100536.78;5056717;28;66384;-37
2022/08/08 04:46:42;;;;;;;3.72;3.42;;;;;;;31.96;61.92;100542.94;5057257;28;69600;-36
2022/08/08 04:49:15;;;;;;;8.10;3.72;;;;;;;31.88;61.84;100537.03;5057626;28;65575;-36
2022/08/08 04:51:48;;;;;;;4.28;3.78;;;;;;;31.95;62.33;100541.28;5056761;28;70451;-36
2022/08/08 04:54:27;;;;;;;3.78;3.40;;;;;;;31.74;62.45;100495.75;5047353;28;66460;-36
2022/08/08 04:57:12;;;;;;;5.30;3.80;;;;;;;31.91;62.51;100504.00;5060386;28;70009;-37
2022/08/08 04:59:45;;;;;;;6.75;3.75;;;;;;;31.89;62.70;100487.94;5058905;28;66560;-38
2022/08/08 05:02:17;;;;;;;6.80;3.53;;;;;;;31.87;62.66;100500.09;5061806;28;69800;-37
2022/08/08 05:05:01;;;;;;;6.63;3.45;;;;;;;31.86;62.85;100493.84;5060196;28;66157;-36
2022/08/08 05:07:35;;;;;;;4.40;3.67;;;;;;;31.85;63.15;100489.50;5070556;28;69364;-37
2022/08/08 05:10:14;;;;;;;4.32;3.60;;;;;;;31.85;62.93;100480.53;5057307;28;66359;-38
2022/08/08 05:12:45;;;;;;;4.97;3.78;;;;;;;31.82;62.85;100476.41;5057625;28;70957;-36
2022/08/08 05:15:33;;;;;;;4.85;3.70;;;;;;;31.83;63.00;100467.19;5050031;28;65516;-37
2022/08/08 05:18:25;;;;;;;3.70;3.40;;;;;;;31.72;63.16;100476.16;5069283;27;70312;-36
2022/08/08 05:20:57;;;;;;;3.58;3.28;;;;;;;31.78;63.22;100480.63;5052075;28;65739;-37
2022/08/08 05:23:35;;;;;;;4.72;3.40;;;;;;;31.78;62.83;100464.38;5059567;28;70804;-38
2022/08/08 05:26:16;;;;;;;4.00;3.63;;;;;;;31.81;62.68;100474.75;5060195;28;65488;-36
2022/08/08 05:28:49;;;;;;;5.70;3.80;;;;;;;31.78;63.17;100488.78;5060810;28;69770;-38
2022/08/08 05:31:38;;;;;;;6.32;4.03;;;;;;;31.79;63.03;100455.19;5060526;28;65526;-37
2022/08/08 05:34:41;;;;;;;4.63;4.10;;;;;;;31.78;63.05;100448.09;5051800;28;70892;-37
2022/08/08 05:37:18;;;;;;;4.15;3.72;;;;;;;31.36;63.19;100375.03;5060191;28;65549;-37
2022/08/08 05:39:54;;;;;;;4.63;4.00;;;;;;;31.34;63.42;100366.28;5050160;28;70290;-37
2022/08/08 05:42:40;;;;;;;4.35;3.95;;;;;;;31.32;63.15;100368.41;5058610;28;65882;-37
2022/08/08 05:45:16;;;;;;;4.32;3.92;;;;;;;31.73;62.93;100415.44;5060396;28;69524;-37
2022/08/08 05:48:06;;;;;;;6.30;4.00;;;;;;;31.74;63.04;100423.34;5049660;28;67011;-37
2022/08/08 05:50:41;;;;;;;4.45;4.05;;;;;;;31.58;62.59;100389.63;5057831;28;70198;-37
2022/08/08 05:53:24;;;;;;;5.65;3.45;;;;;;;31.73;63.29;100418.16;5057170;28;65520;-37
2022/08/08 05:56:19;;;;;;;4.13;3.83;;;;;;;31.63;62.77;100407.09;5048843;28;70427;-37
2022/08/08 05:59:16;;;;;;;3.58;3.28;;;;;;;31.22;63.26;100352.72;5049262;28;66103;-37
2022/08/08 06:05:20;;;;;;;3.60;3.30;;;;;;;31.71;63.35;100393.19;5059636;28;65757;-37
2022/08/08 06:08:12;;;;;;;4.10;3.70;;;;;;;31.75;62.69;100388.91;5070167;28;69793;-37
2022/08/08 06:11:10;;;;;;;4.13;3.80;;;;;;;31.71;63.05;100377.72;5056472;28;67246;-37
2022/08/08 06:13:48;;;;;;;4.07;3.60;;;;;;;31.51;62.95;100329.31;5057857;28;70959;-36
2022/08/08 06:16:24;;;;;;;5.38;4.10;;;;;;;31.33;62.77;100286.84;5058054;28;65543;-36
2022/08/08 06:19:14;;;;;;;3.72;3.42;;;;;;;31.38;62.64;100275.34;5058335;28;69312;-37
2022/08/08 06:21:51;;;;;;;4.55;3.60;;;;;;;31.79;62.56;100344.00;5057371;28;65419;-38
2022/08/08 06:24:45;;;;;;;3.63;3.30;;;;;;;31.81;62.51;100347.28;5058646;28;69744;-36
2022/08/08 06:27:38;;;;;;;4.40;3.88;;;;;;;31.39;62.51;100283.22;5057970;28;66799;-36
2022/08/08 06:30:20;;;;;;;3.90;3.50;;;;;;;31.87;62.60;100354.44;5052164;28;69526;-38
2022/08/08 06:33:02;;;;;;;4.10;3.80;;;;;;;31.87;62.57;100353.63;5059141;28;66912;-37
2022/08/08 06:35:46;;;;;;;3.75;3.33;;;;;;;31.89;62.56;100357.75;5052926;28;70966;-38
2022/08/08 06:38:46;;;;;;;3.85;3.47;;;;;;;31.91;62.68;100350.22;5054151;28;65211;-38
2022/08/08 06:41:19;;;;;;;3.70;3.40;;;;;;;31.93;62.75;100360.84;5057163;28;70462;-37
2022/08/08 06:43:56;;;;;;;3.95;3.53;;;;;;;31.81;62.69;100363.53;5061358;28;65612;-36
2022/08/08 06:46:34;;;;;;;3.58;3.25;;;;;;;31.72;62.64;100383.97;5058142;28;69331;-36
2022/08/08 06:49:10;;;;;;;4.90;3.38;;;;;;;31.94;62.79;100436.56;5057090;28;65729;-37
2022/08/08 06:51:43;;;;;;;7.85;3.70;;;;;;;31.94;62.80;100436.56;5059069;28;69569;-37
2022/08/08 06:54:25;;;;;;;9.45;3.97;;;;;;;31.89;62.89;100444.53;5048540;28;66645;-37
2022/08/08 06:57:00;;;;;;;4.85;3.65;;;;;;;31.63;62.70;100396.25;5060378;28;69989;-37
2022/08/08 06:59:34;;;;;;;9.73;4.22;;;;;;;31.92;62.96;100446.81;5058324;28;65302;-36
2022/08/08 07:02:30;;;;;;;8.20;3.47;;;;;;;31.88;62.95;100444.81;5063795;27;70570;-37
2022/08/08 07:05:08;;;;;;;5.65;3.80;;;;;;;31.44;63.19;100377.38;5057395;28;65527;-38
2022/08/08 07:08:08;;;;;;;7.72;3.78;;;;;;;31.79;63.39;100438.91;5069755;28;70480;-37
2022/08/08 07:10:48;;;;;;;6.47;3.73;;;;;;;31.75;63.66;100454.00;5047433;28;66448;-37
2022/08/08 07:13:24;;;;;;;10.52;3.80;;;;;;;31.71;63.67;100441.97;5056368;28;69510;-37
2022/08/08 07:16:05;;;;;;;8.10;2.80;;;;;;;31.73;63.48;100447.97;5065766;27;66095;-37
2022/08/08 07:19:16;;;;;;;7.82;3.60;;;;;;;31.57;64.05;100460.38;5055314;28;70559;-39
2022/08/08 07:22:04;;;;;;;7.07;3.40;;;;;;;31.31;63.47;100393.84;5058879;28;66075;-38
2022/08/08 07:24:58;;;;;;;7.82;3.60;;;;;;;31.61;63.75;100470.50;5060198;28;70626;-39
2022/08/08 07:27:41;;;;;;;6.85;2.90;;;;;;;31.15;63.50;100390.78;5057309;28;67186;-37
2022/08/08 07:30:32;;;;;;;5.53;3.08;;;;;;;31.55;63.53;100460.59;5056855;28;70425;-36
2022/08/08 07:33:04;;;;;;;6.13;2.88;;;;;;;31.56;63.26;100462.25;5060952;28;66464;-37
2022/08/08 07:35:41;;;;;;;3.70;2.80;;;;;;;31.54;63.37;100461.66;5061125;28;69760;-37
2022/08/08 07:38:15;;;;;;;3.70;2.97;;;;;;;31.53;63.20;100448.34;5047813;28;65818;-37
2022/08/08 07:40:59;;;;;;;4.72;2.88;;;;;;;31.52;63.06;100449.41;5056978;28;70212;-38
2022/08/08 07:43:39;;;;;;;5.95;2.92;;;;;;;31.51;62.85;100440.44;5056658;28;65562;-37
2022/08/08 07:46:20;;;;;;;8.35;2.63;;;;;;;31.48;62.89;100440.94;5047723;28;70421;-36
2022/08/08 07:49:09;;;;;;;3.95;2.47;;;;;;;31.47;62.45;100433.84;5057923;28;65928;-37
2022/08/08 07:51:44;;;;;;;3.28;2.28;;;;;;;31.47;62.42;100425.69;5057899;28;70221;-36
2022/08/08 07:54:39;;;;;;;5.80;2.40;;;;;;;31.45;62.39;100411.56;5050463;28;66394;-38
2022/08/08 07:57:54;;;;;;;3.08;2.05;;;;;;;31.27;62.81;100400.81;5072750;27;70609;-35
2022/08/08 08:00:40;;;;;;;8.27;2.22;;;;;;;31.02;62.48;100336.81;5056992;28;66211;-37
2022/08/08 08:03:34;;;;;;;5.93;2.80;;;;;;;31.43;62.12;100419.13;5056098;28;70194;-37
2022/08/08 08:06:19;;;;;;;2.83;2.08;;;;;;;31.09;62.18;100337.53;5057689;28;66226;-37
2022/08/08 08:09:06;;;;;;;5.18;2.30;;;;;;;31.56;61.34;100416.16;5060829;27;69916;-36
2022/08/08 08:11:44;;;;;;;5.18;3.00;;;;;;;31.56;60.94;100423.47;5057843;28;65610;-38
2022/08/08 08:15:03;;;;;;;2.83;2.20;;;;;;;31.49;61.37;100412.75;5043971;28;70015;-37
2022/08/08 08:17:44;;;;;;;4.72;2.67;;;;;;;31.33;61.21;100370.06;5051489;28;66707;-36
2022/08/08 08:20:25;;;;;;;2.58;2.33;;;;;;;31.56;61.03;100402.59;5059456;28;70075;-37
2022/08/08 08:23:03;;;;;;;3.38;2.10;;;;;;;31.64;60.85;100409.56;5059501;28;66625;-36
2022/08/08 08:25:36;;;;;;;3.17;2.40;;;;;;;31.65;61.09;100407.66;5058355;28;70041;-37
2022/08/08 08:28:21;;;;;;;1.73;1.63;;;;;;;31.66;60.92;100412.03;5055386;28;66584;-35
2022/08/08 08:31:03;;;;;;;3.40;2.30;;;;;;;31.67;60.35;100402.84;5051036;28;70384;-36
2022/08/08 08:33:37;;;;;;;4.05;2.40;;;;;;;31.68;60.41;100409.91;5058481;28;66121;-36
2022/08/08 08:36:13;;;;;;;3.20;2.30;;;;;;;31.66;60.19;100401.19;5060604;28;69603;-37
2022/08/08 08:38:51;;;;;;;4.82;2.75;;;;;;;31.67;59.79;100400.13;5060502;28;66732;-37
2022/08/08 08:41:34;;;;;;;4.75;2.67;;;;;;;31.68;59.84;100396.34;5055602;28;69900;-37
2022/08/08 08:44:07;;;;;;;4.70;2.53;;;;;;;31.68;59.53;100397.19;5060752;28;65866;-37
2022/08/08 08:46:46;;;;;;;4.45;2.60;;;;;;;31.68;59.82;100399.91;5055769;28;69544;-36
2022/08/08 08:49:29;;;;;;;2.88;2.58;;;;;;;31.68;59.35;100404.47;5046086;28;65660;-36
2022/08/08 08:52:07;;;;;;;5.97;2.72;;;;;;;31.57;58.93;100382.56;5053988;28;69145;-36
2022/08/08 08:54:40;;;;;;;4.00;2.88;;;;;;;31.68;59.05;100399.03;5049098;28;66392;-37
2022/08/08 08:57:15;;;;;;;3.88;2.40;;;;;;;31.68;59.15;100388.19;5048635;28;70719;-37
2022/08/08 08:59:54;;;;;;;5.57;2.20;;;;;;;31.66;58.89;100379.50;5051510;28;66354;-36
2022/08/08 09:02:38;;;;;;;2.38;2.17;;;;;;;31.69;59.10;100387.16;5045029;28;70378;-36
2022/08/08 09:05:13;;;;;;;4.32;2.30;;;;;;;31.43;59.03;100340.50;5055998;28;66994;-37
2022/08/08 09:08:07;;;;;;;5.03;2.47;;;;;;;31.67;59.09;100381.13;5054742;28;69671;-36
2022/08/08 09:10:48;;;;;;;2.28;2.03;;;;;;;31.64;59.24;100377.00;5044563;28;65720;-37
2022/08/08 09:13:21;;;;;;;3.53;2.83;;;;;;;31.65;58.98;100372.41;5058944;28;69737;-36
2022/08/08 09:15:58;;;;;;;2.97;2.40;;;;;;;31.63;59.20;100369.13;5051938;28;65788;-36
2022/08/08 09:18:42;;;;;;;5.10;2.45;;;;;;;31.64;59.23;100370.78;5057532;28;69997;-35
2022/08/08 09:21:16;;;;;;;4.13;2.28;;;;;;;31.64;59.18;100362.63;5060920;28;65325;-37
2022/08/08 09:24:09;;;;;;;4.55;2.38;;;;;;;31.22;59.31;100311.25;5055672;28;70040;-36
2022/08/08 09:26:43;;;;;;;2.40;2.15;;;;;;;31.64;59.07;100376.19;5058439;28;66404;-36
2022/08/08 09:29:23;;;;;;;2.80;2.03;;;;;;;31.22;59.23;100306.66;5058899;28;70432;-36
2022/08/08 09:32:09;;;;;;;2.63;2.05;;;;;;;31.47;58.92;100355.22;5058127;28;65776;-36
2022/08/08 09:34:50;;;;;;;6.10;2.47;;;;;;;31.64;59.03;100385.16;5054674;28;70502;-36
2022/08/08 09:37:29;;;;;;;4.35;2.08;;;;;;;31.63;58.84;100385.41;5058501;28;65718;-36
2022/08/08 09:40:32;;;;;;;4.57;2.72;;;;;;;31.61;58.93;100394.56;5061382;28;70413;-37
2022/08/08 09:43:30;;;;;;;4.50;2.78;;;;;;;31.51;58.76;100383.53;5051146;28;66442;-37
2022/08/08 09:46:23;;;;;;;6.20;3.10;;;;;;;31.63;59.05;100401.66;5042682;28;70685;-37
2022/08/08 09:49:01;;;;;;;3.38;2.97;;;;;;;31.52;58.97;100387.88;5058634;28;66565;-37
2022/08/08 09:51:55;;;;;;;5.18;3.33;;;;;;;31.62;59.11;100406.25;5048402;28;70434;-37
2022/08/08 09:54:44;;;;;;;4.13;2.63;;;;;;;31.27;58.83;100354.75;5058796;28;65511;-38
2022/08/08 09:57:38;;;;;;;4.75;2.60;;;;;;;31.40;59.05;100392.50;5054011;28;70417;-37
2022/08/08 10:00:25;;;;;;;5.18;2.70;;;;;;;31.28;59.29;100362.63;5059113;28;66093;-37
2022/08/08 10:03:17;;;;;;;3.35;2.80;;;;;;;31.61;59.20;100427.13;5060999;28;70696;-36
2022/08/08 10:05:50;;;;;;;2.60;2.40;;;;;;;31.62;59.15;100425.22;5060233;28;66312;-37
2022/08/08 10:08:22;;;;;;;;;;;;;;;31.26;59.84;100429.78;5062226;28;70313;-37
2022/08/08 10:11:01;;;;;;;3.00;2.67;;;;;;;31.47;59.37;100419.47;5047107;28;66690;-35
2022/08/08 10:14:02;;;;;;;3.72;2.75;;;;;;;31.56;59.17;100454.09;5062173;28;67826;-37
2022/08/08 10:16:40;;;;;;;2.80;2.60;;;;;;;31.58;58.80;100454.69;5064314;28;65740;-37
2022/08/08 10:19:15;;;;;;;3.58;2.75;;;;;;;31.58;59.30;100448.47;5061732;28;70119;-37
2022/08/08 10:21:51;;;;;;;3.38;3.08;;;;;;;31.56;59.63;100451.38;5062352;27;66225;-36
2022/08/08 10:24:24;;;;;;;9.40;4.03;;;;;;;31.46;60.28;100445.75;5054593;28;70615;-36
2022/08/08 10:27:04;;;;;;;13.63;5.50;;;;;;;30.96;61.08;100391.13;5051185;28;66410;-36
2022/08/08 10:30:04;;;;;;;5.47;4.65;;;;;;;30.81;61.89;100418.59;5053542;28;70376;-35
2022/08/08 10:32:52;;;;;;;6.63;5.25;;;;;;;30.69;63.30;100403.13;5056258;28;67112;-36
2022/08/08 10:35:26;;;;;;;9.88;5.13;;;;;;;30.76;62.47;100399.47;5056006;28;70814;-37
2022/08/08 10:38:19;;;;;;;9.35;4.85;;;;;;;31.08;63.48;100476.75;5057289;28;66544;-37
2022/08/08 10:40:53;;;;;;;6.93;4.50;;;;;;;30.97;62.59;100447.75;5062305;28;70507;-36
2022/08/08 10:43:37;;;;;;;5.18;4.72;;;;;;;30.58;63.88;100406.63;5059167;28;66352;-37
2022/08/08 10:46:26;;;;;;;5.55;4.88;;;;;;;30.91;64.05;100484.69;5058325;28;70165;-38
2022/08/08 10:48:59;;;;;;;7.10;5.57;;;;;;;30.98;64.08;100492.75;5058445;28;66641;-37
2022/08/08 10:51:36;;;;;;;5.65;5.25;;;;;;;31.02;63.80;100499.34;5060454;28;69827;-38
2022/08/08 10:54:22;;;;;;;5.97;5.47;;;;;;;30.96;63.52;100500.28;5056111;28;65335;-36
2022/08/08 10:57:00;;;;;;;6.65;5.97;;;;;;;30.96;64.33;100500.28;5061536;28;70210;-37
2022/08/08 10:59:33;;;;;;;8.55;5.05;;;;;;;30.60;64.89;100453.25;5055577;28;65457;-37
2022/08/08 11:02:10;;;;;;;11.52;5.97;;;;;;;30.81;64.27;100480.88;5058551;28;70084;-38
2022/08/08 11:04:45;;;;;;;5.45;5.00;;;;;;;30.91;64.80;100506.38;5053348;28;67146;-37
2022/08/08 11:07:30;;;;;;;5.97;5.47;;;;;;;30.49;65.21;100435.06;5056172;28;70373;-38
2022/08/08 11:10:24;;;;;;;5.35;4.85;;;;;;;31.02;64.29;100521.00;5052736;28;66502;-38
2022/08/08 11:12:59;;;;;;;9.82;5.20;;;;;;;31.08;64.25;100503.84;5056594;28;69988;-38
2022/08/08 11:15:54;;;;;;;6.88;4.97;;;;;;;30.69;64.01;100451.03;5053707;28;65712;-38
2022/08/08 11:18:37;;;;;;;8.68;5.00;;;;;;;31.22;64.08;100525.31;5053624;28;70014;-38
2022/08/08 11:21:08;;;;;;;;;;;;;;;30.93;65.70;100538.66;5060959;28;65500;-38
2022/08/08 11:23:50;;;;;;;7.28;5.55;;;;;;;31.25;64.07;100532.97;5053572;28;69121;-39
2022/08/08 11:26:35;;;;;;;6.78;5.85;;;;;;;31.32;64.29;100552.69;5058239;28;66142;-38
2022/08/08 11:29:28;;;;;;;6.38;5.75;;;;;;;31.28;64.29;100537.94;5059170;28;69403;-38
2022/08/08 11:32:24;;;;;;;7.70;6.28;;;;;;;31.05;64.68;100501.59;5050186;28;65719;-37
2022/08/08 11:35:06;;;;;;;9.40;7.25;;;;;;;31.23;64.66;100532.38;5054401;28;69571;-38
2022/08/08 11:37:56;;;;;;;10.18;8.90;;;;;;;31.41;64.32;100561.34;5042554;28;66322;-37
2022/08/08 11:40:50;;;;;;;13.77;8.67;;;;;;;31.35;64.52;100552.22;5054542;28;70769;-38
2022/08/08 11:43:27;;;;;;;9.30;8.40;;;;;;;31.46;65.06;100575.84;5034450;28;66156;-38
2022/08/08 11:46:12;;;;;;;10.50;8.45;;;;;;;31.45;64.71;100571.47;5047591;28;69332;-38
2022/08/08 11:48:47;;;;;;;11.10;7.90;;;;;;;31.47;64.89;100572.09;5052451;28;66364;-38
2022/08/08 11:51:23;;;;;;;8.50;7.72;;;;;;;31.50;65.25;100582.47;5047770;28;70287;-38
2022/08/08 11:54:09;;;;;;;8.95;8.15;;;;;;;31.45;65.32;100570.66;5050921;28;65808;-36
2022/08/08 11:57:33;;;;;;;9.03;8.13;;;;;;;31.31;65.90;100583.53;5050615;28;70147;-37
2022/08/08 12:00:07;;;;;;;8.23;7.53;;;;;;;31.48;64.97;100581.88;5029996;28;65673;-39
2022/08/08 12:02:59;;;;;;;9.00;8.30;;;;;;;31.39;65.84;100588.66;5046939;28;69703;-37
2022/08/08 12:05:35;;;;;;;9.82;7.97;;;;;;;31.49;64.91;100586.25;5067896;27;66389;-38
2022/08/08 12:08:09;;;;;;;9.20;8.27;;;;;;;31.49;65.00;100590.84;5050413;28;70079;-38
2022/08/08 12:10:48;;;;;;;9.82;8.02;;;;;;;31.46;65.17;100594.84;5051240;28;66300;-38
2022/08/08 12:13:24;;;;;;;9.93;8.38;;;;;;;31.12;65.12;100536.69;5047200;28;69927;-38
2022/08/08 12:16:18;;;;;;;16.67;9.18;;;;;;;31.21;66.42;100596.84;5051270;28;66031;-38
2022/08/08 12:19:01;;;;;;;11.95;8.77;;;;;;;31.03;68.03;100603.94;5047340;28;69224;-39
2022/08/08 12:21:35;;;;;;;9.48;8.43;;;;;;;30.88;68.64;100612.44;5046006;28;66338;-40
2022/08/08 12:24:26;;;;;;;9.38;8.65;;;;;;;30.79;69.40;100607.56;5055347;28;69954;-40
2022/08/08 12:26:58;;;;;;;14.38;9.60;;;;;;;30.75;70.05;100603.63;5054997;28;65315;-40
2022/08/08 12:29:32;;;;;;;10.48;9.32;;;;;;;30.67;70.00;100611.00;5056757;28;69950;-38
2022/08/08 12:32:11;;;;;;;18.80;8.95;;;;;;;30.66;70.59;100613.94;5050853;28;66767;-37
2022/08/08 12:34:57;;;;;;;12.02;9.50;;;;;;;29.90;71.51;100496.06;5053645;28;69650;-39
2022/08/08 12:37:59;;;;;;;20.73;9.23;;;;;;;30.22;71.54;100554.41;5056101;28;65810;-38
2022/08/08 12:40:43;;;;;;;12.23;9.68;;;;;;;30.11;72.00;100563.25;5058446;28;70094;-38
2022/08/08 12:43:33;;;;;;;22.15;9.07;;;;;;;30.55;72.15;100634.44;5051884;28;66752;-36
2022/08/08 12:46:24;;;;;;;12.65;9.45;;;;;;;30.55;72.32;100628.22;5046388;28;70524;-38
2022/08/08 12:49:01;;;;;;;13.90;9.40;;;;;;;30.58;72.67;100634.00;5057681;28;66326;-36
2022/08/08 12:51:52;;;;;;;16.73;10.27;;;;;;;30.55;72.77;100645.28;5058067;28;70112;-38
2022/08/08 12:54:39;;;;;;;11.30;10.23;;;;;;;30.48;72.69;100644.53;5056667;28;66672;-36
2022/08/08 12:57:25;;;;;;;11.55;9.95;;;;;;;30.46;72.57;100646.63;5068295;27;69833;-35
2022/08/08 13:00:00;;;;;;;18.85;11.82;;;;;;;30.47;72.28;100637.44;5056111;28;66187;-36